Terminal Aerodrome Forecast
Issued by NWS Corpus Christi, TX

Home | Current Version | Previous Version | Text Only | Print | Product List | Glossary On
Versions: 1 2 3 4 5 6 7 8 9 10 11 12 13 14 15 16 17 18
000
FTUS44 KCRP 260539
TAFCRP
TAF
KCRP 260539Z 2606/2706 15011KT P6SM BKN018
      TEMPO 2606/2609 SCT018
     FM261430 15015G21KT P6SM SCT018 BKN025
     FM261800 14015G21KT P6SM SCT025 BKN040
     FM270100 14011KT P6SM SCT025
     FM270400 15007KT P6SM BKN015=

USA.gov is the U.S. government's official web portal to all federal, state and local government web resources and services.